sensor_id;sensor_type;location;lat;lon;timestamp;temperature;humidity
32769;DHT22;23049;54.304;8.826;2023-02-18T00:01:49;6.80;99.90
32769;DHT22;23049;54.304;8.826;2023-02-18T00:04:15;6.80;99.90
32769;DHT22;23049;54.304;8.826;2023-02-18T00:06:40;6.70;99.90
32769;DHT22;23049;54.304;8.826;2023-02-18T00:09:06;6.70;99.90
32769;DHT22;23049;54.304;8.826;2023-02-18T00:11:33;6.80;99.90
32769;DHT22;23049;54.304;8.826;2023-02-18T00:14:00;6.80;99.90
32769;DHT22;23049;54.304;8.826;2023-02-18T00:16:26;6.80;99.90
32769;DHT22;23049;54.304;8.826;2023-02-18T00:18:56;6.80;99.90
32769;DHT22;23049;54.304;8.826;2023-02-18T00:21:21;6.80;99.90
32769;DHT22;23049;54.304;8.826;2023-02-18T00:23:47;6.80;99.90
32769;DHT22;23049;54.304;8.826;2023-02-18T00:26:13;6.80;99.90
32769;DHT22;23049;54.304;8.826;2023-02-18T00:28:39;6.70;99.90
32769;DHT22;23049;54.304;8.826;2023-02-18T00:31:12;6.80;99.90
32769;DHT22;23049;54.304;8.826;2023-02-18T00:33:38;6.70;99.90
32769;DHT22;23049;54.304;8.826;2023-02-18T00:36:05;6.70;99.90
32769;DHT22;23049;54.304;8.826;2023-02-18T00:38:31;6.80;99.90
32769;DHT22;23049;54.304;8.826;2023-02-18T00:40:57;6.70;99.90
32769;DHT22;23049;54.304;8.826;2023-02-18T00:43:22;6.60;99.90
32769;DHT22;23049;54.304;8.826;2023-02-18T00:45:48;6.70;99.90
32769;DHT22;23049;54.304;8.826;2023-02-18T00:48:13;6.70;99.90
32769;DHT22;23049;54.304;8.826;2023-02-18T00:50:39;6.70;99.90
32769;DHT22;23049;54.304;8.826;2023-02-18T00:53:04;6.70;99.90
32769;DHT22;23049;54.304;8.826;2023-02-18T00:55:30;6.70;99.90
32769;DHT22;23049;54.304;8.826;2023-02-18T00:57:55;6.70;99.90
32769;DHT22;23049;54.304;8.826;2023-02-18T01:00:21;6.70;99.90
32769;DHT22;23049;54.304;8.826;2023-02-18T01:02:46;6.60;99.90
32769;DHT22;23049;54.304;8.826;2023-02-18T01:05:12;6.70;99.90
32769;DHT22;23049;54.304;8.826;2023-02-18T01:07:37;6.60;99.90
32769;DHT22;23049;54.304;8.826;2023-02-18T01:10:03;6.70;99.90
32769;DHT22;23049;54.304;8.826;2023-02-18T01:12:29;6.70;99.90
32769;DHT22;23049;54.304;8.826;2023-02-18T01:14:55;6.80;99.90
32769;DHT22;23049;54.304;8.826;2023-02-18T01:17:20;6.90;99.90
32769;DHT22;23049;54.304;8.826;2023-02-18T01:19:46;6.90;99.90
32769;DHT22;23049;54.304;8.826;2023-02-18T01:22:11;6.90;99.90
32769;DHT22;23049;54.304;8.826;2023-02-18T01:24:37;6.90;99.90
32769;DHT22;23049;54.304;8.826;2023-02-18T01:27:02;6.90;99.90
32769;DHT22;23049;54.304;8.826;2023-02-18T01:29:28;6.90;99.90
32769;DHT22;23049;54.304;8.826;2023-02-18T01:31:53;7.00;99.90
32769;DHT22;23049;54.304;8.826;2023-02-18T01:34:19;6.90;99.90
32769;DHT22;23049;54.304;8.826;2023-02-18T01:36:44;7.00;99.90
32769;DHT22;23049;54.304;8.826;2023-02-18T01:39:10;7.00;99.90
32769;DHT22;23049;54.304;8.826;2023-02-18T01:41:36;7.00;99.90
32769;DHT22;23049;54.304;8.826;2023-02-18T01:46:39;7.00;99.90
32769;DHT22;23049;54.304;8.826;2023-02-18T01:49:04;7.10;99.90
32769;DHT22;23049;54.304;8.826;2023-02-18T01:51:32;7.00;99.90
32769;DHT22;23049;54.304;8.826;2023-02-18T01:56:30;7.10;99.90
32769;DHT22;23049;54.304;8.826;2023-02-18T01:58:59;7.00;99.90
32769;DHT22;23049;54.304;8.826;2023-02-18T02:01:25;7.10;99.90
32769;DHT22;23049;54.304;8.826;2023-02-18T02:03:51;7.10;99.90
32769;DHT22;23049;54.304;8.826;2023-02-18T02:06:18;7.10;99.90
32769;DHT22;23049;54.304;8.826;2023-02-18T02:08:43;7.10;99.90
32769;DHT22;23049;54.304;8.826;2023-02-18T02:11:13;7.10;99.90
32769;DHT22;23049;54.304;8.826;2023-02-18T02:19:03;7.10;99.90
32769;DHT22;23049;54.304;8.826;2023-02-18T02:21:42;7.10;99.90
32769;DHT22;23049;54.304;8.826;2023-02-18T02:27:11;7.10;99.90
32769;DHT22;23049;54.304;8.826;2023-02-18T02:35:05;7.10;99.90
32769;DHT22;23049;54.304;8.826;2023-02-18T02:37:44;7.10;99.90
32769;DHT22;23049;54.304;8.826;2023-02-18T02:53:12;7.00;99.90
32769;DHT22;23049;54.304;8.826;2023-02-18T02:55:38;7.00;99.90
32769;DHT22;23049;54.304;8.826;2023-02-18T02:58:04;7.00;99.90
32769;DHT22;23049;54.304;8.826;2023-02-18T03:00:52;7.00;99.90
32769;DHT22;23049;54.304;8.826;2023-02-18T03:03:29;7.10;99.90
32769;DHT22;23049;54.304;8.826;2023-02-18T03:11:12;7.10;99.90
32769;DHT22;23049;54.304;8.826;2023-02-18T03:16:25;7.10;99.90
32769;DHT22;23049;54.304;8.826;2023-02-18T03:19:02;7.10;99.90
32769;DHT22;23049;54.304;8.826;2023-02-18T03:21:31;7.10;99.90
32769;DHT22;23049;54.304;8.826;2023-02-18T03:23:59;7.10;99.90
32769;DHT22;23049;54.304;8.826;2023-02-18T03:26:26;7.10;99.90
32769;DHT22;23049;54.304;8.826;2023-02-18T03:28:54;7.20;99.90
32769;DHT22;23049;54.304;8.826;2023-02-18T03:31:21;7.20;99.90
32769;DHT22;23049;54.304;8.826;2023-02-18T03:33:51;7.20;99.90
32769;DHT22;23049;54.304;8.826;2023-02-18T03:36:17;7.20;99.90
32769;DHT22;23049;54.304;8.826;2023-02-18T03:38:52;7.20;99.90
32769;DHT22;23049;54.304;8.826;2023-02-18T03:41:19;7.20;99.90
32769;DHT22;23049;54.304;8.826;2023-02-18T03:43:48;7.10;99.90
32769;DHT22;23049;54.304;8.826;2023-02-18T03:46:14;7.10;99.90
32769;DHT22;23049;54.304;8.826;2023-02-18T03:48:39;7.10;99.90
32769;DHT22;23049;54.304;8.826;2023-02-18T03:51:05;7.20;99.90
32769;DHT22;23049;54.304;8.826;2023-02-18T03:53:30;7.10;99.90
32769;DHT22;23049;54.304;8.826;2023-02-18T03:55:56;7.10;99.90
32769;DHT22;23049;54.304;8.826;2023-02-18T03:58:21;7.10;99.90
32769;DHT22;23049;54.304;8.826;2023-02-18T04:00:47;7.10;99.90
32769;DHT22;23049;54.304;8.826;2023-02-18T04:03:12;7.20;99.90
32769;DHT22;23049;54.304;8.826;2023-02-18T04:05:38;7.10;99.90
32769;DHT22;23049;54.304;8.826;2023-02-18T04:08:03;7.20;99.90
32769;DHT22;23049;54.304;8.826;2023-02-18T04:10:30;7.10;99.90
32769;DHT22;23049;54.304;8.826;2023-02-18T04:12:55;7.10;99.90
32769;DHT22;23049;54.304;8.826;2023-02-18T04:15:20;7.20;99.90
32769;DHT22;23049;54.304;8.826;2023-02-18T04:17:46;7.10;99.90
32769;DHT22;23049;54.304;8.826;2023-02-18T04:20:11;7.10;99.90
32769;DHT22;23049;54.304;8.826;2023-02-18T04:22:37;7.00;99.90
32769;DHT22;23049;54.304;8.826;2023-02-18T04:25:03;7.00;99.90
32769;DHT22;23049;54.304;8.826;2023-02-18T04:27:28;7.00;99.90
32769;DHT22;23049;54.304;8.826;2023-02-18T04:29:54;7.00;99.90
32769;DHT22;23049;54.304;8.826;2023-02-18T04:32:19;6.90;99.90
32769;DHT22;23049;54.304;8.826;2023-02-18T04:34:45;6.90;99.90
32769;DHT22;23049;54.304;8.826;2023-02-18T04:37:10;6.90;99.90
32769;DHT22;23049;54.304;8.826;2023-02-18T04:39:36;6.90;99.90
32769;DHT22;23049;54.304;8.826;2023-02-18T04:42:01;6.90;99.90
32769;DHT22;23049;54.304;8.826;2023-02-18T04:44:33;6.80;99.90
32769;DHT22;23049;54.304;8.826;2023-02-18T04:46:59;6.80;99.90
32769;DHT22;23049;54.304;8.826;2023-02-18T04:49:24;6.80;99.90
32769;DHT22;23049;54.304;8.826;2023-02-18T04:51:50;6.90;99.90
32769;DHT22;23049;54.304;8.826;2023-02-18T04:54:15;6.90;99.90
32769;DHT22;23049;54.304;8.826;2023-02-18T04:56:41;6.90;99.90
32769;DHT22;23049;54.304;8.826;2023-02-18T04:59:06;6.90;99.90
32769;DHT22;23049;54.304;8.826;2023-02-18T05:01:32;6.90;99.90
32769;DHT22;23049;54.304;8.826;2023-02-18T05:03:57;6.90;99.90
32769;DHT22;23049;54.304;8.826;2023-02-18T05:06:23;6.80;99.90
32769;DHT22;23049;54.304;8.826;2023-02-18T05:08:48;6.90;99.90
32769;DHT22;23049;54.304;8.826;2023-02-18T05:11:14;6.80;99.90
32769;DHT22;23049;54.304;8.826;2023-02-18T05:13:39;6.80;99.90
32769;DHT22;23049;54.304;8.826;2023-02-18T05:16:05;6.70;99.90
32769;DHT22;23049;54.304;8.826;2023-02-18T05:18:30;6.70;99.90
32769;DHT22;23049;54.304;8.826;2023-02-18T05:20:56;6.70;99.90
32769;DHT22;23049;54.304;8.826;2023-02-18T05:23:21;6.70;99.90
32769;DHT22;23049;54.304;8.826;2023-02-18T05:25:47;6.70;99.90
32769;DHT22;23049;54.304;8.826;2023-02-18T05:28:12;6.70;99.90
32769;DHT22;23049;54.304;8.826;2023-02-18T05:30:38;6.70;99.90
32769;DHT22;23049;54.304;8.826;2023-02-18T05:33:04;6.70;99.90
32769;DHT22;23049;54.304;8.826;2023-02-18T05:35:29;6.70;99.90
32769;DHT22;23049;54.304;8.826;2023-02-18T05:37:55;6.80;99.90
32769;DHT22;23049;54.304;8.826;2023-02-18T05:40:20;6.80;99.90
32769;DHT22;23049;54.304;8.826;2023-02-18T05:42:46;6.80;99.90
32769;DHT22;23049;54.304;8.826;2023-02-18T05:45:11;6.80;99.90
32769;DHT22;23049;54.304;8.826;2023-02-18T05:47:37;6.80;99.90
32769;DHT22;23049;54.304;8.826;2023-02-18T05:50:02;6.80;99.90
32769;DHT22;23049;54.304;8.826;2023-02-18T05:52:28;6.80;99.90
32769;DHT22;23049;54.304;8.826;2023-02-18T05:54:54;6.70;99.90
32769;DHT22;23049;54.304;8.826;2023-02-18T05:57:19;6.70;99.90
32769;DHT22;23049;54.304;8.826;2023-02-18T05:59:45;6.70;99.90
32769;DHT22;23049;54.304;8.826;2023-02-18T06:02:10;6.70;99.90
32769;DHT22;23049;54.304;8.826;2023-02-18T06:04:36;6.70;99.90
32769;DHT22;23049;54.304;8.826;2023-02-18T06:07:02;6.70;99.90
32769;DHT22;23049;54.304;8.826;2023-02-18T06:09:27;6.70;99.90
32769;DHT22;23049;54.304;8.826;2023-02-18T06:11:53;6.70;99.90
32769;DHT22;23049;54.304;8.826;2023-02-18T06:14:19;6.70;99.90
32769;DHT22;23049;54.304;8.826;2023-02-18T06:16:45;6.70;99.90
32769;DHT22;23049;54.304;8.826;2023-02-18T06:19:10;6.70;99.90
32769;DHT22;23049;54.304;8.826;2023-02-18T06:21:36;6.70;99.90
32769;DHT22;23049;54.304;8.826;2023-02-18T06:24:01;6.70;99.90
32769;DHT22;23049;54.304;8.826;2023-02-18T06:26:27;6.70;99.90
32769;DHT22;23049;54.304;8.826;2023-02-18T06:28:52;6.70;99.90
32769;DHT22;23049;54.304;8.826;2023-02-18T06:31:18;6.70;99.90
32769;DHT22;23049;54.304;8.826;2023-02-18T06:33:43;6.70;99.90
32769;DHT22;23049;54.304;8.826;2023-02-18T06:36:09;6.70;99.90
32769;DHT22;23049;54.304;8.826;2023-02-18T06:38:36;6.80;99.90
32769;DHT22;23049;54.304;8.826;2023-02-18T06:41:02;6.70;99.90
32769;DHT22;23049;54.304;8.826;2023-02-18T06:43:27;6.80;99.90
32769;DHT22;23049;54.304;8.826;2023-02-18T06:45:53;6.70;99.90
32769;DHT22;23049;54.304;8.826;2023-02-18T06:48:19;6.70;99.90
32769;DHT22;23049;54.304;8.826;2023-02-18T06:50:44;6.70;99.90
32769;DHT22;23049;54.304;8.826;2023-02-18T06:53:10;6.80;99.90
32769;DHT22;23049;54.304;8.826;2023-02-18T06:55:36;6.70;99.90
32769;DHT22;23049;54.304;8.826;2023-02-18T06:58:01;6.70;99.90
32769;DHT22;23049;54.304;8.826;2023-02-18T07:00:27;6.70;99.90
32769;DHT22;23049;54.304;8.826;2023-02-18T07:02:53;6.70;99.90
32769;DHT22;23049;54.304;8.826;2023-02-18T07:05:18;6.70;99.90
32769;DHT22;23049;54.304;8.826;2023-02-18T07:07:44;6.70;99.90
32769;DHT22;23049;54.304;8.826;2023-02-18T07:10:09;6.70;99.90
32769;DHT22;23049;54.304;8.826;2023-02-18T07:12:35;6.70;99.90
32769;DHT22;23049;54.304;8.826;2023-02-18T07:15:00;6.70;99.90
32769;DHT22;23049;54.304;8.826;2023-02-18T07:17:26;6.60;99.90
32769;DHT22;23049;54.304;8.826;2023-02-18T07:19:51;6.60;99.90
32769;DHT22;23049;54.304;8.826;2023-02-18T07:22:17;6.70;99.90
32769;DHT22;23049;54.304;8.826;2023-02-18T07:24:42;6.70;99.90
32769;DHT22;23049;54.304;8.826;2023-02-18T07:27:08;6.70;99.90
32769;DHT22;23049;54.304;8.826;2023-02-18T07:29:34;6.70;99.90
32769;DHT22;23049;54.304;8.826;2023-02-18T07:31:59;6.70;99.90
32769;DHT22;23049;54.304;8.826;2023-02-18T07:34:25;6.70;99.90
32769;DHT22;23049;54.304;8.826;2023-02-18T07:36:50;6.70;99.90
32769;DHT22;23049;54.304;8.826;2023-02-18T07:39:16;6.80;99.90
32769;DHT22;23049;54.304;8.826;2023-02-18T07:41:48;6.80;99.90
32769;DHT22;23049;54.304;8.826;2023-02-18T07:44:13;6.80;99.90
32769;DHT22;23049;54.304;8.826;2023-02-18T07:46:39;6.80;99.90
32769;DHT22;23049;54.304;8.826;2023-02-18T07:49:05;6.80;99.90
32769;DHT22;23049;54.304;8.826;2023-02-18T07:51:31;6.90;99.90
32769;DHT22;23049;54.304;8.826;2023-02-18T07:53:56;6.80;99.90
32769;DHT22;23049;54.304;8.826;2023-02-18T07:56:22;6.70;99.90
32769;DHT22;23049;54.304;8.826;2023-02-18T07:58:48;6.80;99.90
32769;DHT22;23049;54.304;8.826;2023-02-18T08:01:14;6.70;99.90
32769;DHT22;23049;54.304;8.826;2023-02-18T08:03:39;6.70;99.90
32769;DHT22;23049;54.304;8.826;2023-02-18T08:06:07;6.70;99.90
32769;DHT22;23049;54.304;8.826;2023-02-18T08:08:33;6.70;99.90
32769;DHT22;23049;54.304;8.826;2023-02-18T08:10:59;6.80;99.90
32769;DHT22;23049;54.304;8.826;2023-02-18T08:13:29;6.80;99.90
32769;DHT22;23049;54.304;8.826;2023-02-18T08:15:55;6.80;99.90
32769;DHT22;23049;54.304;8.826;2023-02-18T08:18:22;6.90;99.90
32769;DHT22;23049;54.304;8.826;2023-02-18T08:20:48;6.90;99.90
32769;DHT22;23049;54.304;8.826;2023-02-18T08:23:17;6.80;99.90
32769;DHT22;23049;54.304;8.826;2023-02-18T08:25:50;6.80;99.90
32769;DHT22;23049;54.304;8.826;2023-02-18T08:28:17;6.80;99.90
32769;DHT22;23049;54.304;8.826;2023-02-18T08:30:45;6.80;99.90
32769;DHT22;23049;54.304;8.826;2023-02-18T08:33:11;6.80;99.90
32769;DHT22;23049;54.304;8.826;2023-02-18T08:35:37;6.80;99.90
32769;DHT22;23049;54.304;8.826;2023-02-18T08:38:02;6.80;99.90
32769;DHT22;23049;54.304;8.826;2023-02-18T08:40:28;6.80;99.90
32769;DHT22;23049;54.304;8.826;2023-02-18T08:42:54;6.80;99.90
32769;DHT22;23049;54.304;8.826;2023-02-18T08:45:20;6.80;99.90
32769;DHT22;23049;54.304;8.826;2023-02-18T08:47:45;6.90;99.90
32769;DHT22;23049;54.304;8.826;2023-02-18T08:50:11;6.90;99.90
32769;DHT22;23049;54.304;8.826;2023-02-18T08:52:36;6.80;99.90
32769;DHT22;23049;54.304;8.826;2023-02-18T08:55:03;6.90;99.90
32769;DHT22;23049;54.304;8.826;2023-02-18T08:57:28;6.80;99.90
32769;DHT22;23049;54.304;8.826;2023-02-18T08:59:54;6.80;99.90
32769;DHT22;23049;54.304;8.826;2023-02-18T09:02:20;6.80;99.90
32769;DHT22;23049;54.304;8.826;2023-02-18T09:04:45;6.90;99.90
32769;DHT22;23049;54.304;8.826;2023-02-18T09:07:11;6.80;99.90
32769;DHT22;23049;54.304;8.826;2023-02-18T09:09:36;6.70;99.90
32769;DHT22;23049;54.304;8.826;2023-02-18T09:12:02;6.60;99.90
32769;DHT22;23049;54.304;8.826;2023-02-18T09:14:27;6.70;99.90
32769;DHT22;23049;54.304;8.826;2023-02-18T09:16:53;6.60;99.90
32769;DHT22;23049;54.304;8.826;2023-02-18T09:19:18;6.70;99.90
32769;DHT22;23049;54.304;8.826;2023-02-18T09:21:44;6.80;99.90
32769;DHT22;23049;54.304;8.826;2023-02-18T09:24:09;6.90;99.90
32769;DHT22;23049;54.304;8.826;2023-02-18T09:26:35;6.90;99.90
32769;DHT22;23049;54.304;8.826;2023-02-18T09:29:01;6.90;99.90
32769;DHT22;23049;54.304;8.826;2023-02-18T09:31:27;6.90;99.90
32769;DHT22;23049;54.304;8.826;2023-02-18T09:33:57;6.90;99.90
32769;DHT22;23049;54.304;8.826;2023-02-18T09:36:23;7.00;99.90
32769;DHT22;23049;54.304;8.826;2023-02-18T09:38:48;7.00;99.90
32769;DHT22;23049;54.304;8.826;2023-02-18T09:41:26;6.90;99.90
32769;DHT22;23049;54.304;8.826;2023-02-18T09:43:53;7.10;99.90
32769;DHT22;23049;54.304;8.826;2023-02-18T09:48:51;7.20;99.90
32769;DHT22;23049;54.304;8.826;2023-02-18T09:51:17;7.10;99.90
32769;DHT22;23049;54.304;8.826;2023-02-18T09:53:43;7.10;99.90
32769;DHT22;23049;54.304;8.826;2023-02-18T09:56:13;7.20;99.90
32769;DHT22;23049;54.304;8.826;2023-02-18T09:58:39;7.00;99.90
32769;DHT22;23049;54.304;8.826;2023-02-18T10:03:39;6.60;99.90
32769;DHT22;23049;54.304;8.826;2023-02-18T10:06:07;6.40;99.90
32769;DHT22;23049;54.304;8.826;2023-02-18T10:08:35;6.30;99.90
32769;DHT22;23049;54.304;8.826;2023-02-18T10:11:01;6.20;99.90
32769;DHT22;23049;54.304;8.826;2023-02-18T10:13:28;6.30;99.90
32769;DHT22;23049;54.304;8.826;2023-02-18T10:15:53;6.30;99.90
32769;DHT22;23049;54.304;8.826;2023-02-18T10:18:33;6.30;99.90
32769;DHT22;23049;54.304;8.826;2023-02-18T10:21:03;6.20;99.90
32769;DHT22;23049;54.304;8.826;2023-02-18T10:23:30;6.10;99.90
32769;DHT22;23049;54.304;8.826;2023-02-18T10:25:57;6.20;99.90
32769;DHT22;23049;54.304;8.826;2023-02-18T10:28:24;6.10;99.90
32769;DHT22;23049;54.304;8.826;2023-02-18T10:30:53;6.00;99.90
32769;DHT22;23049;54.304;8.826;2023-02-18T10:35:56;6.00;99.90
32769;DHT22;23049;54.304;8.826;2023-02-18T10:38:40;6.10;99.90
32769;DHT22;23049;54.304;8.826;2023-02-18T10:41:15;6.00;99.90
32769;DHT22;23049;54.304;8.826;2023-02-18T10:51:20;6.00;99.90
32769;DHT22;23049;54.304;8.826;2023-02-18T10:53:47;6.00;99.90
32769;DHT22;23049;54.304;8.826;2023-02-18T10:59:32;5.60;99.90
32769;DHT22;23049;54.304;8.826;2023-02-18T11:01:53;5.50;99.90
32769;DHT22;23049;54.304;8.826;2023-02-18T11:04:20;5.40;99.90
32769;DHT22;23049;54.304;8.826;2023-02-18T11:06:48;5.50;99.90
32769;DHT22;23049;54.304;8.826;2023-02-18T11:09:26;5.40;99.90
32769;DHT22;23049;54.304;8.826;2023-02-18T11:11:57;5.30;99.90
32769;DHT22;23049;54.304;8.826;2023-02-18T11:14:35;5.30;99.90
32769;DHT22;23049;54.304;8.826;2023-02-18T11:17:06;5.20;99.90
32769;DHT22;23049;54.304;8.826;2023-02-18T11:19:37;5.20;99.90
32769;DHT22;23049;54.304;8.826;2023-02-18T11:22:14;5.30;99.90
32769;DHT22;23049;54.304;8.826;2023-02-18T11:24:40;5.40;99.90
32769;DHT22;23049;54.304;8.826;2023-02-18T11:27:24;5.30;99.90
32769;DHT22;23049;54.304;8.826;2023-02-18T11:29:51;5.30;99.90
32769;DHT22;23049;54.304;8.826;2023-02-18T11:32:18;5.30;99.90
32769;DHT22;23049;54.304;8.826;2023-02-18T11:34:43;5.40;99.90
32769;DHT22;23049;54.304;8.826;2023-02-18T11:37:16;5.30;99.90
32769;DHT22;23049;54.304;8.826;2023-02-18T11:39:43;5.50;99.90
32769;DHT22;23049;54.304;8.826;2023-02-18T11:42:12;5.80;99.90
32769;DHT22;23049;54.304;8.826;2023-02-18T11:44:42;6.00;99.90
32769;DHT22;23049;54.304;8.826;2023-02-18T11:49:38;6.20;99.90
32769;DHT22;23049;54.304;8.826;2023-02-18T11:54:30;6.00;99.90
32769;DHT22;23049;54.304;8.826;2023-02-18T11:59:21;6.00;99.90
32769;DHT22;23049;54.304;8.826;2023-02-18T12:01:51;6.00;99.90
32769;DHT22;23049;54.304;8.826;2023-02-18T12:04:28;5.80;99.90
32769;DHT22;23049;54.304;8.826;2023-02-18T12:07:16;6.00;99.90
32769;DHT22;23049;54.304;8.826;2023-02-18T12:09:45;5.80;99.90
32769;DHT22;23049;54.304;8.826;2023-02-18T12:12:13;5.70;99.90
32769;DHT22;23049;54.304;8.826;2023-02-18T12:14:40;5.70;99.90
32769;DHT22;23049;54.304;8.826;2023-02-18T12:17:11;5.80;99.90
32769;DHT22;23049;54.304;8.826;2023-02-18T12:27:30;5.80;99.90
32769;DHT22;23049;54.304;8.826;2023-02-18T12:32:34;5.60;99.90
32769;DHT22;23049;54.304;8.826;2023-02-18T12:35:17;5.60;99.90
32769;DHT22;23049;54.304;8.826;2023-02-18T12:58:37;5.70;99.90
32769;DHT22;23049;54.304;8.826;2023-02-18T13:09:10;5.50;99.90
32769;DHT22;23049;54.304;8.826;2023-02-18T13:16:38;5.40;99.90
32769;DHT22;23049;54.304;8.826;2023-02-18T13:19:25;5.50;99.90
32769;DHT22;23049;54.304;8.826;2023-02-18T13:21:52;5.60;99.90
32769;DHT22;23049;54.304;8.826;2023-02-18T13:24:25;5.50;99.90
32769;DHT22;23049;54.304;8.826;2023-02-18T13:26:52;5.70;99.90
32769;DHT22;23049;54.304;8.826;2023-02-18T13:29:34;5.50;99.90
32769;DHT22;23049;54.304;8.826;2023-02-18T13:35:08;5.60;99.90
32769;DHT22;23049;54.304;8.826;2023-02-18T13:40:00;5.60;99.90
32769;DHT22;23049;54.304;8.826;2023-02-18T13:55:38;5.70;99.90
32769;DHT22;23049;54.304;8.826;2023-02-18T13:58:04;5.70;99.90
32769;DHT22;23049;54.304;8.826;2023-02-18T14:00:36;5.70;99.90
32769;DHT22;23049;54.304;8.826;2023-02-18T14:05:54;5.90;99.90
32769;DHT22;23049;54.304;8.826;2023-02-18T14:16:21;5.80;99.90
32769;DHT22;23049;54.304;8.826;2023-02-18T14:18:59;5.80;99.90
32769;DHT22;23049;54.304;8.826;2023-02-18T14:21:35;5.70;99.90
32769;DHT22;23049;54.304;8.826;2023-02-18T14:24:02;5.80;99.90
32769;DHT22;23049;54.304;8.826;2023-02-18T14:26:39;5.60;99.90
32769;DHT22;23049;54.304;8.826;2023-02-18T14:29:11;5.60;99.90
32769;DHT22;23049;54.304;8.826;2023-02-18T14:31:50;5.70;99.90
32769;DHT22;23049;54.304;8.826;2023-02-18T14:37:36;5.60;99.90
32769;DHT22;23049;54.304;8.826;2023-02-18T14:40:29;5.60;99.90
32769;DHT22;23049;54.304;8.826;2023-02-18T14:48:21;5.50;99.90
32769;DHT22;23049;54.304;8.826;2023-02-18T14:50:50;5.70;99.90
32769;DHT22;23049;54.304;8.826;2023-02-18T14:53:18;5.90;99.90
32769;DHT22;23049;54.304;8.826;2023-02-18T14:55:45;6.10;99.90
32769;DHT22;23049;54.304;8.826;2023-02-18T15:00:41;6.30;99.90
32769;DHT22;23049;54.304;8.826;2023-02-18T15:03:14;6.30;99.90
32769;DHT22;23049;54.304;8.826;2023-02-18T15:05:40;6.50;99.90
32769;DHT22;23049;54.304;8.826;2023-02-18T15:08:16;6.70;99.90
32769;DHT22;23049;54.304;8.826;2023-02-18T15:10:42;6.70;99.90
32769;DHT22;23049;54.304;8.826;2023-02-18T15:13:17;6.90;99.90
32769;DHT22;23049;54.304;8.826;2023-02-18T15:15:44;6.90;99.90
32769;DHT22;23049;54.304;8.826;2023-02-18T15:18:15;6.90;99.90
32769;DHT22;23049;54.304;8.826;2023-02-18T15:20:43;6.60;99.90
32769;DHT22;23049;54.304;8.826;2023-02-18T15:23:10;6.80;99.90
32769;DHT22;23049;54.304;8.826;2023-02-18T15:25:38;6.80;99.90
32769;DHT22;23049;54.304;8.826;2023-02-18T15:28:03;7.10;99.90
32769;DHT22;23049;54.304;8.826;2023-02-18T15:30:29;7.10;99.90
32769;DHT22;23049;54.304;8.826;2023-02-18T15:32:56;7.20;99.90
32769;DHT22;23049;54.304;8.826;2023-02-18T15:35:22;7.30;99.90
32769;DHT22;23049;54.304;8.826;2023-02-18T15:37:53;7.30;99.90
32769;DHT22;23049;54.304;8.826;2023-02-18T15:40:19;7.20;99.90
32769;DHT22;23049;54.304;8.826;2023-02-18T15:42:48;7.30;99.90
32769;DHT22;23049;54.304;8.826;2023-02-18T15:45:15;7.30;99.90
32769;DHT22;23049;54.304;8.826;2023-02-18T15:47:42;7.00;99.90
32769;DHT22;23049;54.304;8.826;2023-02-18T15:52:46;6.80;99.90
32769;DHT22;23049;54.304;8.826;2023-02-18T15:55:13;6.80;99.90
32769;DHT22;23049;54.304;8.826;2023-02-18T15:57:39;6.60;99.90
32769;DHT22;23049;54.304;8.826;2023-02-18T16:00:13;6.50;99.90
32769;DHT22;23049;54.304;8.826;2023-02-18T16:02:51;6.30;99.90
32769;DHT22;23049;54.304;8.826;2023-02-18T16:05:17;6.10;99.90
32769;DHT22;23049;54.304;8.826;2023-02-18T16:07:50;6.10;99.90
32769;DHT22;23049;54.304;8.826;2023-02-18T16:12:52;5.80;99.90
32769;DHT22;23049;54.304;8.826;2023-02-18T16:15:23;5.80;99.90
32769;DHT22;23049;54.304;8.826;2023-02-18T16:17:49;5.70;99.90
32769;DHT22;23049;54.304;8.826;2023-02-18T16:20:26;5.60;99.90
32769;DHT22;23049;54.304;8.826;2023-02-18T16:22:53;5.50;99.90
32769;DHT22;23049;54.304;8.826;2023-02-18T16:25:23;5.50;99.90
32769;DHT22;23049;54.304;8.826;2023-02-18T16:27:50;5.50;99.90
32769;DHT22;23049;54.304;8.826;2023-02-18T16:32:42;5.40;99.90
32769;DHT22;23049;54.304;8.826;2023-02-18T16:35:08;5.30;99.90
32769;DHT22;23049;54.304;8.826;2023-02-18T16:37:33;5.30;99.90
32769;DHT22;23049;54.304;8.826;2023-02-18T16:42:36;5.20;99.90
32769;DHT22;23049;54.304;8.826;2023-02-18T16:45:02;5.10;99.90
32769;DHT22;23049;54.304;8.826;2023-02-18T16:47:27;5.10;99.90
32769;DHT22;23049;54.304;8.826;2023-02-18T16:49:53;5.00;99.90
32769;DHT22;23049;54.304;8.826;2023-02-18T16:52:19;4.90;99.90
32769;DHT22;23049;54.304;8.826;2023-02-18T16:54:44;4.70;99.90
32769;DHT22;23049;54.304;8.826;2023-02-18T16:57:12;4.70;99.90
32769;DHT22;23049;54.304;8.826;2023-02-18T16:59:38;4.70;99.90
32769;DHT22;23049;54.304;8.826;2023-02-18T17:02:03;4.60;99.90
32769;DHT22;23049;54.304;8.826;2023-02-18T17:04:29;4.50;99.90
32769;DHT22;23049;54.304;8.826;2023-02-18T17:06:54;4.40;99.90
32769;DHT22;23049;54.304;8.826;2023-02-18T17:09:21;4.50;99.90
32769;DHT22;23049;54.304;8.826;2023-02-18T17:11:48;4.40;99.90
32769;DHT22;23049;54.304;8.826;2023-02-18T17:14:18;4.40;99.90
32769;DHT22;23049;54.304;8.826;2023-02-18T17:16:48;4.40;99.90
32769;DHT22;23049;54.304;8.826;2023-02-18T17:19:14;4.40;99.90
32769;DHT22;23049;54.304;8.826;2023-02-18T17:21:40;4.40;99.90
32769;DHT22;23049;54.304;8.826;2023-02-18T17:24:05;4.40;99.90
32769;DHT22;23049;54.304;8.826;2023-02-18T17:26:31;4.40;99.90
32769;DHT22;23049;54.304;8.826;2023-02-18T17:28:57;4.30;99.90
32769;DHT22;23049;54.304;8.826;2023-02-18T17:31:26;4.30;99.90
32769;DHT22;23049;54.304;8.826;2023-02-18T17:33:53;4.20;99.90
32769;DHT22;23049;54.304;8.826;2023-02-18T17:36:19;4.20;99.90
32769;DHT22;23049;54.304;8.826;2023-02-18T17:38:45;4.30;99.90
32769;DHT22;23049;54.304;8.826;2023-02-18T17:41:11;4.30;99.90
32769;DHT22;23049;54.304;8.826;2023-02-18T17:43:37;4.20;99.90
32769;DHT22;23049;54.304;8.826;2023-02-18T17:46:03;4.10;99.90
32769;DHT22;23049;54.304;8.826;2023-02-18T17:48:29;4.00;99.90
32769;DHT22;23049;54.304;8.826;2023-02-18T17:50:55;4.10;99.90
32769;DHT22;23049;54.304;8.826;2023-02-18T17:53:21;4.20;99.90
32769;DHT22;23049;54.304;8.826;2023-02-18T17:55:47;4.20;99.90
32769;DHT22;23049;54.304;8.826;2023-02-18T17:58:13;4.20;99.90
32769;DHT22;23049;54.304;8.826;2023-02-18T18:00:43;4.20;99.90
32769;DHT22;23049;54.304;8.826;2023-02-18T18:03:09;4.10;99.90
32769;DHT22;23049;54.304;8.826;2023-02-18T18:05:36;4.10;99.90
32769;DHT22;23049;54.304;8.826;2023-02-18T18:08:02;4.30;99.90
32769;DHT22;23049;54.304;8.826;2023-02-18T18:10:29;4.30;99.90
32769;DHT22;23049;54.304;8.826;2023-02-18T18:12:57;4.30;99.90
32769;DHT22;23049;54.304;8.826;2023-02-18T18:15:24;4.30;99.90
32769;DHT22;23049;54.304;8.826;2023-02-18T18:17:51;4.20;99.90
32769;DHT22;23049;54.304;8.826;2023-02-18T18:20:17;4.10;99.90
32769;DHT22;23049;54.304;8.826;2023-02-18T18:22:43;4.10;99.90
32769;DHT22;23049;54.304;8.826;2023-02-18T18:25:16;4.10;99.90
32769;DHT22;23049;54.304;8.826;2023-02-18T18:27:42;4.10;99.90